Time;durP1;ratioP1;P1;durP2;ratioP2;P2;SDS_P1;SDS_P2;PMS_P1;PMS_P2;Temp;Humidity;BMP_temperature;BMP_pressure;BME280_temperature;BME280_humidity;BME280_pressure;Samples;Min_cycle;Max_cycle;Signal;HPM_P1;HPM_P2
2022/07/17 00:01:28;;;;;;;5.87;3.53;;;15.50;75.40;;;;;;5089267;28;20520;-72
2022/07/17 00:04:13;;;;;;;4.73;3.83;;;15.60;74.70;;;;;;5086905;28;20817;-73
2022/07/17 00:07:00;;;;;;;4.87;3.57;;;15.60;73.80;;;;;;5087736;28;21004;-73
2022/07/17 00:09:46;;;;;;;10.13;4.47;;;15.40;74.10;;;;;;5088205;28;20450;-72
2022/07/17 00:12:32;;;;;;;6.73;4.23;;;15.20;74.40;;;;;;5092176;28;20434;-72
2022/07/17 00:15:20;;;;;;;5.53;3.87;;;15.10;75.20;;;;;;5089330;28;20589;-72
2022/07/17 00:18:07;;;;;;;5.50;4.47;;;15.00;75.80;;;;;;5090710;28;21029;-72
2022/07/17 00:20:53;;;;;;;5.30;3.97;;;15.00;76.20;;;;;;5083516;28;21017;-73
2022/07/17 00:23:39;;;;;;;6.60;4.17;;;15.00;76.50;;;;;;5089813;28;20460;-73
2022/07/17 00:26:25;;;;;;;9.03;3.47;;;15.00;76.20;;;;;;5089895;28;20438;-72
2022/07/17 00:29:11;;;;;;;4.80;3.43;;;15.00;75.90;;;;;;5093708;28;20440;-72
2022/07/17 00:31:58;;;;;;;4.40;3.43;;;15.00;76.00;;;;;;5088130;28;20468;-72
2022/07/17 00:34:44;;;;;;;5.30;3.60;;;15.10;76.00;;;;;;5088210;28;20476;-72
2022/07/17 00:37:29;;;;;;;4.40;3.27;;;15.10;75.90;;;;;;5087741;28;20946;-72
2022/07/17 00:40:19;;;;;;;5.23;3.97;;;15.20;75.40;;;;;;5091740;28;20880;-72
2022/07/17 00:43:04;;;;;;;3.40;2.90;;;15.10;75.10;;;;;;5090847;28;20497;-72
2022/07/17 00:45:56;;;;;;;3.53;3.10;;;14.90;75.10;;;;;;5092525;28;20515;-72
2022/07/17 00:48:44;;;;;;;4.10;3.27;;;14.90;75.80;;;;;;5093819;28;20475;-72
2022/07/17 00:51:30;;;;;;;4.70;3.37;;;14.70;76.00;;;;;;5088190;28;20454;-72
2022/07/17 00:54:16;;;;;;;6.00;3.57;;;14.80;76.10;;;;;;5087921;28;20918;-72
2022/07/17 00:57:06;;;;;;;4.53;3.17;;;14.70;76.50;;;;;;5089922;28;21145;-72
2022/07/17 00:59:52;;;;;;;4.53;3.60;;;14.80;76.00;;;;;;5090993;28;21147;-72
2022/07/17 01:02:38;;;;;;;4.90;2.97;;;14.70;76.90;;;;;;5087427;28;20441;-72
2022/07/17 01:05:26;;;;;;;3.77;2.97;;;14.60;76.80;;;;;;5089713;28;20449;-72
2022/07/17 01:08:12;;;;;;;4.50;2.93;;;14.50;77.60;;;;;;5093579;28;20476;-72
2022/07/17 01:10:58;;;;;;;5.30;3.37;;;14.50;78.30;;;;;;5089227;28;20411;-72
2022/07/17 01:13:43;;;;;;;4.30;3.40;;;14.60;78.40;;;;;;5088723;28;20810;-72
2022/07/17 01:16:30;;;;;;;3.50;2.80;;;14.60;77.80;;;;;;5089194;28;20437;-72
2022/07/17 01:19:16;;;;;;;3.63;2.70;;;14.50;78.10;;;;;;5088191;28;20488;-71
2022/07/17 01:22:03;;;;;;;6.90;2.93;;;14.40;78.90;;;;;;5086246;28;20950;-71
2022/07/17 01:24:49;;;;;;;7.43;3.40;;;14.40;79.40;;;;;;5087856;28;20437;-71
2022/07/17 01:27:35;;;;;;;5.63;2.90;;;14.20;79.20;;;;;;5089966;28;20551;-73
2022/07/17 01:30:20;;;;;;;5.33;3.13;;;14.20;79.90;;;;;;5085794;28;20435;-70
2022/07/17 01:33:06;;;;;;;5.37;3.00;;;14.20;79.80;;;;;;5089482;28;20567;-70
2022/07/17 01:35:52;;;;;;;4.30;2.70;;;14.30;80.50;;;;;;5092918;28;20968;-70
2022/07/17 01:38:40;;;;;;;4.00;2.80;;;14.20;80.40;;;;;;5087592;28;20512;-70
2022/07/17 01:41:25;;;;;;;3.17;2.60;;;14.30;80.20;;;;;;5089571;28;20635;-70
2022/07/17 01:44:11;;;;;;;6.30;3.13;;;14.30;79.90;;;;;;5090125;28;20523;-71
2022/07/17 01:46:57;;;;;;;5.00;2.80;;;14.30;79.80;;;;;;5092919;28;20478;-73
2022/07/17 01:49:45;;;;;;;4.60;2.70;;;14.40;79.30;;;;;;5090951;28;20738;-73
2022/07/17 01:52:31;;;;;;;4.00;2.50;;;14.30;79.40;;;;;;5089268;28;20459;-73
2022/07/17 01:55:18;;;;;;;3.53;2.50;;;14.30;79.30;;;;;;5085450;28;20466;-70
2022/07/17 01:58:06;;;;;;;3.93;3.40;;;14.20;79.20;;;;;;5093810;28;20475;-70
2022/07/17 02:00:52;;;;;;;4.63;2.87;;;13.90;80.30;;;;;;5091562;28;20441;-71
2022/07/17 02:03:37;;;;;;;3.87;2.90;;;14.00;80.60;;;;;;5087572;28;21053;-70
2022/07/17 02:06:23;;;;;;;5.77;2.60;;;13.90;80.30;;;;;;5091293;28;21397;-73
2022/07/17 02:09:09;;;;;;;7.63;3.07;;;13.80;80.90;;;;;;5091352;28;20442;-70
2022/07/17 02:11:56;;;;;;;3.97;2.43;;;13.90;81.20;;;;;;5089300;28;20842;-70
2022/07/17 02:14:41;;;;;;;7.53;3.30;;;14.00;81.00;;;;;;5087588;28;20539;-70
2022/07/17 02:17:27;;;;;;;3.63;2.10;;;14.00;80.70;;;;;;5096262;28;20469;-71
2022/07/17 02:20:13;;;;;;;4.67;2.37;;;14.00;80.90;;;;;;5089265;28;20709;-70
2022/07/17 02:22:58;;;;;;;7.90;2.73;;;14.00;80.50;;;;;;5087640;28;20449;-73
2022/07/17 02:25:44;;;;;;;5.43;2.87;;;14.10;80.40;;;;;;5089865;28;20799;-73
2022/07/17 02:28:31;;;;;;;6.20;2.30;;;14.10;80.10;;;;;;5088904;28;20520;-72
2022/07/17 02:31:17;;;;;;;3.50;2.40;;;14.00;80.00;;;;;;5087278;28;20450;-72
2022/07/17 02:34:02;;;;;;;5.33;2.47;;;14.00;80.10;;;;;;5089853;28;20420;-72
2022/07/17 02:36:48;;;;;;;6.63;2.80;;;13.80;80.10;;;;;;5090039;28;20847;-72
2022/07/17 02:39:34;;;;;;;3.33;2.40;;;13.80;81.40;;;;;;5087866;28;20592;-73
2022/07/17 02:42:20;;;;;;;3.03;2.20;;;13.70;81.80;;;;;;5089839;28;20441;-73
2022/07/17 02:45:09;;;;;;;5.13;2.37;;;13.70;82.40;;;;;;5093248;28;20420;-72
2022/07/17 02:47:55;;;;;;;3.10;2.20;;;13.60;82.80;;;;;;5092446;28;20489;-72
2022/07/17 02:50:41;;;;;;;3.90;2.20;;;13.60;82.80;;;;;;5093485;28;20437;-73
2022/07/17 02:53:27;;;;;;;8.80;2.60;;;13.60;82.60;;;;;;5087702;28;20492;-72
2022/07/17 02:56:13;;;;;;;6.70;2.23;;;13.60;82.50;;;;;;5092849;28;20962;-73
2022/07/17 02:58:59;;;;;;;5.80;2.87;;;13.70;82.80;;;;;;5092616;28;20444;-72
2022/07/17 03:01:46;;;;;;;3.03;2.03;;;13.60;82.90;;;;;;5085195;28;20919;-72
2022/07/17 03:04:32;;;;;;;3.00;1.97;;;13.60;82.60;;;;;;5087487;28;20953;-72
2022/07/17 03:07:18;;;;;;;3.57;2.23;;;13.80;82.70;;;;;;5089744;28;20997;-72
2022/07/17 03:10:04;;;;;;;4.10;2.67;;;13.60;82.70;;;;;;5088928;28;20445;-72
2022/07/17 03:12:50;;;;;;;3.40;2.20;;;13.70;83.20;;;;;;5086637;28;20801;-72
2022/07/17 03:15:35;;;;;;;3.10;2.00;;;13.50;83.20;;;;;;5086334;28;20478;-72
2022/07/17 03:18:22;;;;;;;3.90;2.40;;;13.50;83.10;;;;;;5091217;28;20466;-73
2022/07/17 03:21:08;;;;;;;4.20;2.03;;;13.50;83.10;;;;;;5088334;28;20442;-73
2022/07/17 03:23:54;;;;;;;6.53;1.70;;;13.50;83.60;;;;;;5085454;28;20454;-73
2022/07/17 03:26:39;;;;;;;3.60;2.03;;;13.50;83.60;;;;;;5095151;28;20510;-73
2022/07/17 03:29:25;;;;;;;3.90;2.00;;;13.60;83.50;;;;;;5090337;28;20559;-72
2022/07/17 03:32:11;;;;;;;2.83;1.90;;;13.60;83.70;;;;;;5085807;28;20487;-73
2022/07/17 03:34:58;;;;;;;4.10;2.47;;;13.70;83.70;;;;;;5087866;28;20481;-73
2022/07/17 03:37:44;;;;;;;5.00;2.20;;;13.60;83.20;;;;;;5084906;28;20511;-72
2022/07/17 03:40:31;;;;;;;4.00;2.27;;;13.40;83.90;;;;;;5085312;28;20446;-73
2022/07/17 03:43:16;;;;;;;6.47;2.30;;;13.40;84.30;;;;;;5087541;28;20433;-72
2022/07/17 03:46:02;;;;;;;6.57;1.73;;;13.30;84.20;;;;;;5087293;28;20580;-72
2022/07/17 03:48:48;;;;;;;5.00;1.63;;;13.40;84.20;;;;;;5090892;28;20456;-72
2022/07/17 03:51:34;;;;;;;2.77;1.77;;;13.30;84.60;;;;;;5077440;28;20450;-72
2022/07/17 03:54:20;;;;;;;6.43;2.00;;;13.40;84.20;;;;;;5087960;28;21079;-72
2022/07/17 03:57:06;;;;;;;5.53;2.37;;;13.50;84.80;;;;;;5087332;28;20814;-72
2022/07/17 03:59:51;;;;;;;4.23;2.33;;;13.50;85.00;;;;;;5084812;28;20468;-72
2022/07/17 04:02:37;;;;;;;7.13;2.10;;;13.40;84.50;;;;;;5087116;28;20517;-72
2022/07/17 04:05:23;;;;;;;3.20;1.97;;;13.50;85.00;;;;;;5092986;28;20471;-72
2022/07/17 04:08:12;;;;;;;4.07;1.60;;;13.60;84.70;;;;;;5087556;28;20819;-73
2022/07/17 04:10:58;;;;;;;6.17;1.73;;;13.70;83.60;;;;;;5085029;28;20445;-72
2022/07/17 04:13:44;;;;;;;4.43;2.00;;;13.50;83.80;;;;;;5095098;28;20445;-73
2022/07/17 04:16:29;;;;;;;4.80;1.80;;;13.40;85.00;;;;;;5085114;28;20484;-73
2022/07/17 04:19:15;;;;;;;4.83;2.00;;;13.40;85.70;;;;;;5093002;28;20434;-73
2022/07/17 04:22:01;;;;;;;6.37;2.00;;;13.30;85.70;;;;;;5085462;28;20959;-72
2022/07/17 04:24:48;;;;;;;4.20;1.70;;;13.40;85.30;;;;;;5086915;28;20957;-72
2022/07/17 04:27:34;;;;;;;10.70;1.83;;;13.40;85.60;;;;;;5095159;28;20534;-72
2022/07/17 04:30:19;;;;;;;5.30;2.37;;;13.40;86.10;;;;;;5090518;28;20928;-72
2022/07/17 04:33:05;;;;;;;3.90;1.90;;;13.50;86.00;;;;;;5091502;28;20441;-72
2022/07/17 04:35:51;;;;;;;4.63;1.70;;;13.50;85.80;;;;;;5090214;28;20469;-72
2022/07/17 04:38:37;;;;;;;3.83;1.80;;;13.70;85.90;;;;;;5094135;28;20500;-72
2022/07/17 04:41:24;;;;;;;4.77;1.90;;;13.80;86.20;;;;;;5089889;28;20433;-72
2022/07/17 04:44:09;;;;;;;4.47;1.70;;;14.00;86.40;;;;;;5089692;28;20955;-72
2022/07/17 04:46:56;;;;;;;3.47;1.60;;;14.00;85.80;;;;;;5092160;28;20958;-72
2022/07/17 04:49:41;;;;;;;5.20;1.63;;;14.00;85.50;;;;;;5084628;28;20799;-72
2022/07/17 04:52:27;;;;;;;4.43;1.50;;;14.10;85.10;;;;;;5091406;28;20442;-72
2022/07/17 04:55:13;;;;;;;7.30;1.67;;;14.10;84.40;;;;;;5088780;28;20499;-73
2022/07/17 04:58:00;;;;;;;4.00;1.63;;;14.20;84.80;;;;;;5089272;28;20534;-72
2022/07/17 05:00:46;;;;;;;6.40;1.73;;;14.30;83.80;;;;;;5088463;28;20465;-72
2022/07/17 05:03:31;;;;;;;6.43;2.07;;;14.30;84.50;;;;;;5091873;28;20446;-73
2022/07/17 05:06:17;;;;;;;3.30;1.60;;;14.50;84.80;;;;;;5089290;28;20958;-73
2022/07/17 05:09:03;;;;;;;5.63;1.87;;;14.50;84.10;;;;;;5084562;28;20551;-73
2022/07/17 05:11:48;;;;;;;5.00;2.50;;;14.80;83.80;;;;;;5086703;28;20947;-72
2022/07/17 05:14:35;;;;;;;4.27;1.50;;;14.80;83.10;;;;;;5085483;28;21077;-72
2022/07/17 05:17:21;;;;;;;6.60;1.97;;;14.90;83.10;;;;;;5088127;28;20477;-72
2022/07/17 05:20:08;;;;;;;7.10;2.00;;;15.10;83.10;;;;;;5087817;28;20450;-72
2022/07/17 05:22:54;;;;;;;2.63;1.70;;;15.20;81.10;;;;;;5089556;28;20822;-73
2022/07/17 05:25:40;;;;;;;7.90;1.80;;;15.40;81.90;;;;;;5085360;28;20441;-72
2022/07/17 05:28:26;;;;;;;2.17;1.30;;;15.30;82.30;;;;;;5085876;28;20825;-72
2022/07/17 05:31:13;;;;;;;4.10;1.40;;;15.40;82.70;;;;;;5088008;28;20822;-72
2022/07/17 05:33:58;;;;;;;3.90;1.70;;;15.60;81.80;;;;;;5090963;28;20446;-72
2022/07/17 05:36:45;;;;;;;3.53;1.70;;;15.70;81.00;;;;;;5090019;28;21016;-72
2022/07/17 05:39:31;;;;;;;3.07;1.70;;;15.90;80.60;;;;;;5080168;28;20810;-72
2022/07/17 05:42:16;;;;;;;5.40;2.00;;;16.10;80.50;;;;;;5090059;28;20438;-72
2022/07/17 05:45:02;;;;;;;3.60;1.70;;;16.20;80.30;;;;;;5085076;28;20858;-72
2022/07/17 05:47:49;;;;;;;3.50;1.93;;;16.40;79.80;;;;;;5083507;28;20461;-72
2022/07/17 05:50:36;;;;;;;2.33;1.27;;;16.50;79.10;;;;;;5082391;28;20442;-72
2022/07/17 05:53:21;;;;;;;3.77;1.90;;;16.70;78.30;;;;;;5089354;28;20454;-72
2022/07/17 05:56:07;;;;;;;3.70;1.90;;;16.70;78.20;;;;;;5088162;28;20546;-72
2022/07/17 05:58:53;;;;;;;7.20;2.20;;;16.90;78.60;;;;;;5114902;22;20989;-77
2022/07/17 06:01:38;;;;;;;3.30;1.60;;;17.00;76.40;;;;;;5108891;28;20442;-76
2022/07/17 06:04:25;;;;;;;4.43;1.57;;;17.10;77.00;;;;;;5101269;28;20450;-76
2022/07/17 06:07:11;;;;;;;3.20;1.67;;;17.30;77.20;;;;;;5102706;28;20816;-77
2022/07/17 06:09:57;;;;;;;2.93;1.37;;;17.40;76.50;;;;;;5111869;27;20444;-76
2022/07/17 06:12:42;;;;;;;4.00;1.73;;;17.60;76.60;;;;;;5106479;28;20448;-76
2022/07/17 06:15:28;;;;;;;6.50;2.03;;;17.80;76.80;;;;;;5099470;28;20438;-77
2022/07/17 06:18:14;;;;;;;6.80;1.57;;;18.00;74.50;;;;;;5103093;28;20452;-77
2022/07/17 06:21:01;;;;;;;8.90;1.60;;;18.10;71.20;;;;;;5106686;28;20483;-76
2022/07/17 06:23:47;;;;;;;2.93;1.50;;;18.30;69.50;;;;;;5101396;28;20992;-77
2022/07/17 06:26:32;;;;;;;5.43;1.73;;;18.40;68.10;;;;;;5101096;28;20800;-77
2022/07/17 06:29:18;;;;;;;9.67;1.40;;;18.50;65.00;;;;;;5102310;28;21003;-77
2022/07/17 06:32:04;;;;;;;4.50;1.30;;;18.70;60.50;;;;;;5105316;28;20458;-77
2022/07/17 06:34:50;;;;;;;5.40;1.87;;;18.90;54.30;;;;;;5104048;28;20437;-77
2022/07/17 06:37:38;;;;;;;8.20;1.60;;;19.10;52.40;;;;;;5100874;28;20476;-77
2022/07/17 06:40:24;;;;;;;11.43;1.50;;;19.30;52.60;;;;;;5102986;28;20526;-76
2022/07/17 06:43:09;;;;;;;3.93;1.77;;;19.50;49.10;;;;;;5099557;28;20437;-77
2022/07/17 06:45:55;;;;;;;3.37;1.40;;;19.60;46.60;;;;;;5096386;28;20535;-77
2022/07/17 06:48:40;;;;;;;3.93;1.57;;;19.70;46.20;;;;;;5099889;28;20491;-77
2022/07/17 06:51:26;;;;;;;2.97;1.37;;;19.90;43.20;;;;;;5107012;28;20440;-76
2022/07/17 06:54:13;;;;;;;2.77;1.30;;;20.10;42.40;;;;;;5105943;28;20432;-77
2022/07/17 06:56:59;;;;;;;3.00;1.30;;;20.20;41.70;;;;;;5102380;28;20460;-76
2022/07/17 06:59:45;;;;;;;4.63;1.80;;;20.40;40.00;;;;;;5105712;28;20583;-77
2022/07/17 07:02:31;;;;;;;4.60;1.43;;;20.40;39.40;;;;;;5103338;28;20438;-76
2022/07/17 07:05:16;;;;;;;5.00;1.80;;;20.50;39.10;;;;;;5104344;28;20548;-76
2022/07/17 07:08:02;;;;;;;8.10;1.37;;;20.60;37.80;;;;;;5098990;28;20845;-77
2022/07/17 07:10:49;;;;;;;7.57;1.50;;;20.70;37.60;;;;;;5106420;28;20457;-77
2022/07/17 07:13:35;;;;;;;4.43;1.80;;;20.80;36.40;;;;;;5110697;28;20425;-76
2022/07/17 07:16:21;;;;;;;6.50;1.97;;;20.90;37.00;;;;;;5101617;28;20469;-76
2022/07/17 07:19:07;;;;;;;11.23;2.17;;;21.00;36.50;;;;;;5103669;28;20569;-76
2022/07/17 07:21:52;;;;;;;4.57;1.63;;;21.10;40.10;;;;;;5105932;28;20436;-76
2022/07/17 07:24:38;;;;;;;3.87;1.30;;;21.10;38.30;;;;;;5096909;28;20575;-77
2022/07/17 07:27:25;;;;;;;4.10;1.60;;;21.20;38.40;;;;;;5104712;28;21178;-77
2022/07/17 07:30:11;;;;;;;2.63;1.17;;;21.30;35.50;;;;;;5107967;28;20433;-77
2022/07/17 07:32:57;;;;;;;7.40;1.67;;;21.30;39.40;;;;;;5107828;28;20448;-77
2022/07/17 07:35:43;;;;;;;6.80;1.30;;;21.40;38.10;;;;;;5104093;28;20493;-77
2022/07/17 07:38:29;;;;;;;5.20;1.30;;;21.50;37.10;;;;;;5100791;28;20540;-77
2022/07/17 07:41:15;;;;;;;3.50;1.30;;;21.60;37.80;;;;;;5110178;28;20425;-77
2022/07/17 07:44:02;;;;;;;5.03;1.27;;;21.70;37.30;;;;;;5108155;28;20437;-77
2022/07/17 07:46:48;;;;;;;4.80;1.80;;;21.70;35.80;;;;;;5102421;28;20461;-77
2022/07/17 07:49:33;;;;;;;3.77;1.20;;;21.80;35.40;;;;;;5109212;28;20965;-77
2022/07/17 07:52:19;;;;;;;7.53;1.73;;;21.80;34.20;;;;;;5107341;27;20456;-77
2022/07/17 07:55:05;;;;;;;3.47;1.73;;;21.90;34.80;;;;;;5100484;28;20806;-77
2022/07/17 07:58:01;;;;;;;6.03;1.80;;;22.00;35.40;;;;;;5107470;28;20468;-77
2022/07/17 08:00:48;;;;;;;9.60;2.50;;;22.10;34.50;;;;;;5109849;28;20437;-77
2022/07/17 08:03:34;;;;;;;4.13;1.73;;;22.10;38.70;;;;;;5112261;27;20590;-77
2022/07/17 08:06:20;;;;;;;5.17;2.20;;;22.20;33.90;;;;;;5104575;28;20522;-77
2022/07/17 08:09:06;;;;;;;4.30;1.80;;;22.20;33.60;;;;;;5111695;27;20547;-77
2022/07/17 08:11:52;;;;;;;4.67;1.60;;;22.30;33.20;;;;;;5108189;28;21023;-77
2022/07/17 08:14:38;;;;;;;6.17;1.50;;;22.30;33.30;;;;;;5104540;28;20586;-77
2022/07/17 08:17:25;;;;;;;2.97;1.30;;;22.40;32.60;;;;;;5102818;27;21067;-77
2022/07/17 08:20:12;;;;;;;2.20;1.20;;;22.50;30.90;;;;;;5105641;28;20484;-78
2022/07/17 08:22:58;;;;;;;6.40;1.80;;;22.70;33.80;;;;;;5107151;27;20449;-74
2022/07/17 08:25:46;;;;;;;4.10;1.50;;;22.70;30.80;;;;;;5103189;28;20437;-75
2022/07/17 08:28:31;;;;;;;4.10;1.30;;;22.80;30.30;;;;;;5105267;28;21004;-75
2022/07/17 08:31:17;;;;;;;4.63;1.40;;;22.80;30.20;;;;;;5104160;28;20421;-75
2022/07/17 08:34:04;;;;;;;3.60;1.23;;;22.90;29.50;;;;;;5106852;28;20421;-75
2022/07/17 08:36:50;;;;;;;2.30;1.03;;;23.00;29.00;;;;;;5099000;28;20469;-75
2022/07/17 08:39:36;;;;;;;3.50;1.60;;;23.00;29.10;;;;;;5101808;28;20926;-75
2022/07/17 08:42:21;;;;;;;5.20;1.40;;;23.00;28.90;;;;;;5110239;28;21032;-75
2022/07/17 08:45:08;;;;;;;4.40;1.53;;;23.10;29.00;;;;;;5105032;28;20445;-75
2022/07/17 08:47:55;;;;;;;3.77;1.30;;;23.20;29.00;;;;;;5103310;28;20448;-75
2022/07/17 08:50:42;;;;;;;4.03;1.20;;;23.30;28.20;;;;;;5101432;28;20799;-74
2022/07/17 08:53:28;;;;;;;3.70;1.33;;;23.30;29.10;;;;;;5110040;28;20487;-75
2022/07/17 08:56:14;;;;;;;6.00;1.37;;;23.30;28.40;;;;;;5101066;27;20532;-75
2022/07/17 08:58:59;;;;;;;5.43;1.83;;;23.40;29.20;;;;;;5115266;27;20476;-75
2022/07/17 09:01:45;;;;;;;5.63;1.60;;;23.40;28.90;;;;;;5106665;28;20430;-74
2022/07/17 09:04:31;;;;;;;2.83;1.20;;;23.50;29.90;;;;;;5103514;28;20576;-75
2022/07/17 09:07:18;;;;;;;5.67;1.60;;;23.60;30.40;;;;;;5099688;28;20421;-75
2022/07/17 09:10:05;;;;;;;2.80;1.03;;;23.70;28.70;;;;;;5114383;27;20485;-75
2022/07/17 09:12:50;;;;;;;3.00;1.57;;;23.80;27.80;;;;;;5099286;28;20433;-75
2022/07/17 09:15:36;;;;;;;7.77;3.17;;;23.70;26.70;;;;;;5099960;28;20660;-75
2022/07/17 09:18:23;;;;;;;6.90;1.87;;;23.70;29.50;;;;;;5108303;28;20475;-75
2022/07/17 09:21:16;;;;;;;4.00;1.83;;;23.80;28.90;;;;;;5111248;28;20573;-75
2022/07/17 09:24:06;;;;;;;7.43;1.50;;;23.90;28.60;;;;;;5106223;28;20467;-75
2022/07/17 09:26:52;;;;;;;9.53;1.53;;;24.00;29.70;;;;;;5104842;28;20413;-75
2022/07/17 09:29:52;;;;;;;3.83;1.30;;;24.10;29.80;;;;;;5110657;28;20961;-75
2022/07/17 09:32:40;;;;;;;2.40;1.30;;;24.10;27.30;;;;;;5104090;28;20420;-75
2022/07/17 09:35:26;;;;;;;3.87;1.50;;;24.30;27.90;;;;;;5106908;28;20445;-75
2022/07/17 09:38:14;;;;;;;5.20;1.40;;;24.40;25.60;;;;;;5105226;28;20471;-75
2022/07/17 09:41:12;;;;;;;4.63;1.40;;;24.40;27.70;;;;;;5109956;28;20421;-75
2022/07/17 09:44:01;;;;;;;3.17;1.60;;;24.50;25.80;;;;;;5102681;28;20571;-75
2022/07/17 09:46:46;;;;;;;2.73;1.10;;;24.30;24.70;;;;;;5102665;28;20478;-75
2022/07/17 09:49:33;;;;;;;5.30;1.17;;;24.20;23.90;;;;;;5109962;28;20805;-75
2022/07/17 09:52:19;;;;;;;3.13;1.20;;;24.30;25.60;;;;;;5106907;28;20425;-75
2022/07/17 09:55:05;;;;;;;2.60;1.20;;;24.30;25.20;;;;;;5101129;28;20461;-75
2022/07/17 09:57:55;;;;;;;3.60;1.17;;;24.50;26.00;;;;;;5100810;28;20476;-75
2022/07/17 10:00:41;;;;;;;5.43;1.77;;;24.60;25.50;;;;;;5109126;28;20629;-75
2022/07/17 10:03:27;;;;;;;5.43;2.20;;;24.70;25.40;;;;;;5102358;28;20440;-75
2022/07/17 10:06:13;;;;;;;3.40;1.93;;;24.80;24.10;;;;;;5095626;28;20583;-75
2022/07/17 10:08:59;;;;;;;4.00;1.60;;;24.80;23.30;;;;;;5101804;27;20445;-75
2022/07/17 10:11:44;;;;;;;4.57;1.37;;;24.90;24.40;;;;;;5106771;27;20462;-74
2022/07/17 10:14:32;;;;;;;3.40;1.20;;;25.00;23.80;;;;;;5105257;28;20501;-75
2022/07/17 10:17:23;;;;;;;4.17;1.20;;;25.00;23.80;;;;;;5105350;28;20488;-75
2022/07/17 10:20:11;;;;;;;2.87;1.20;;;25.10;24.10;;;;;;5108946;28;20433;-75
2022/07/17 10:22:56;;;;;;;5.13;1.53;;;25.10;22.00;;;;;;5096449;28;20422;-75
2022/07/17 10:25:43;;;;;;;3.50;1.00;;;25.20;23.10;;;;;;5101091;28;21025;-74
2022/07/17 10:28:40;;;;;;;4.70;1.60;;;25.10;22.40;;;;;;5107876;28;20471;-75
2022/07/17 10:31:29;;;;;;;3.87;1.67;;;25.30;23.80;;;;;;5103194;28;20920;-75
2022/07/17 10:34:15;;;;;;;3.37;1.57;;;25.30;23.20;;;;;;5106676;28;20440;-75
2022/07/17 10:37:01;;;;;;;8.13;1.93;;;25.50;23.60;;;;;;5100867;28;21397;-75
2022/07/17 10:40:02;;;;;;;4.00;1.90;;;25.60;23.00;;;;;;5100049;28;20503;-75
2022/07/17 10:42:56;;;;;;;2.43;1.23;;;25.70;22.10;;;;;;5102029;28;20953;-75
2022/07/17 10:45:43;;;;;;;3.70;1.10;;;25.70;23.60;;;;;;5099414;28;20507;-75
2022/07/17 10:48:30;;;;;;;5.13;1.87;;;25.90;21.60;;;;;;5109010;28;20440;-75
2022/07/17 10:51:16;;;;;;;3.87;1.60;;;25.80;22.40;;;;;;5107977;28;20424;-75
2022/07/17 10:54:02;;;;;;;7.13;2.10;;;25.80;20.50;;;;;;5097216;28;20516;-75
2022/07/17 10:56:49;;;;;;;3.20;1.40;;;25.80;21.20;;;;;;5099409;28;20418;-75
2022/07/17 10:59:34;;;;;;;3.63;1.60;;;26.00;21.60;;;;;;5103137;28;20931;-75
2022/07/17 11:02:29;;;;;;;3.17;1.70;;;26.10;22.50;;;;;;5101799;28;20537;-75
2022/07/17 11:05:17;;;;;;;3.10;1.40;;;26.20;21.70;;;;;;5105976;28;20901;-75
2022/07/17 11:08:09;;;;;;;3.20;1.30;;;26.30;20.00;;;;;;5102341;28;20492;-75
2022/07/17 11:10:54;;;;;;;2.60;1.53;;;26.30;19.80;;;;;;5117414;28;20917;-75
2022/07/17 11:13:40;;;;;;;3.17;1.07;;;26.40;21.40;;;;;;5105030;28;20444;-75
2022/07/17 11:16:27;;;;;;;2.90;1.43;;;26.40;21.80;;;;;;5103229;28;20434;-75
2022/07/17 11:19:12;;;;;;;2.70;1.30;;;26.60;22.10;;;;;;5104371;28;20468;-75
2022/07/17 11:22:02;;;;;;;3.60;1.30;;;26.70;20.90;;;;;;5111085;28;20429;-75
2022/07/17 11:24:49;;;;;;;3.17;1.23;;;26.80;21.80;;;;;;5105236;28;20524;-75
2022/07/17 11:27:35;;;;;;;7.07;1.20;;;26.90;20.20;;;;;;5103827;28;20970;-75
2022/07/17 11:30:23;;;;;;;2.60;1.50;;;27.00;20.30;;;;;;5112036;28;20416;-75
2022/07/17 11:33:16;;;;;;;3.50;1.40;;;26.90;18.60;;;;;;5101485;28;20444;-74
2022/07/17 11:36:01;;;;;;;3.40;1.53;;;26.90;20.20;;;;;;5101627;28;20433;-75
2022/07/17 11:38:49;;;;;;;7.33;1.70;;;27.00;21.10;;;;;;5101771;28;20472;-75
2022/07/17 11:41:37;;;;;;;3.20;2.10;;;27.10;20.40;;;;;;5106181;28;20772;-75
2022/07/17 11:44:25;;;;;;;3.10;1.43;;;27.30;20.50;;;;;;5105823;28;20455;-75
2022/07/17 11:47:12;;;;;;;3.43;1.30;;;27.40;20.50;;;;;;5106455;28;20424;-75
2022/07/17 11:50:07;;;;;;;3.47;1.40;;;27.40;18.70;;;;;;5102735;28;20445;-75
2022/07/17 11:52:52;;;;;;;3.40;1.40;;;27.50;18.00;;;;;;5106433;28;20449;-74
2022/07/17 11:55:41;;;;;;;4.73;1.50;;;27.30;17.80;;;;;;5099133;28;20541;-75
2022/07/17 11:58:26;;;;;;;4.27;1.53;;;27.30;18.10;;;;;;5116339;22;20492;-90
2022/07/17 12:01:12;;;;;;;3.33;1.43;;;27.10;17.40;;;;;;5091942;28;20438;-90
2022/07/17 12:03:59;;;;;;;4.13;1.20;;;27.10;20.40;;;;;;5081882;28;20465;-91
2022/07/17 12:06:46;;;;;;;3.50;1.10;;;27.30;20.50;;;;;;5091741;28;20417;-90
2022/07/17 12:09:34;;;;;;;4.20;1.23;;;27.50;18.30;;;;;;5099747;28;20432;-91
2022/07/17 12:12:22;;;;;;;2.73;1.27;;;27.50;19.20;;;;;;5093988;28;20441;-90
2022/07/17 12:15:09;;;;;;;4.43;1.20;;;27.70;19.40;;;;;;5082658;28;20423;-90
2022/07/17 12:17:54;;;;;;;5.90;1.43;;;27.90;17.50;;;;;;5084373;28;20489;-92
2022/07/17 12:20:45;;;;;;;2.80;1.40;;;28.00;17.80;;;;;;5087789;28;20426;-91
2022/07/17 12:23:32;;;;;;;5.50;1.40;;;28.10;18.50;;;;;;5080251;28;21109;-91
2022/07/17 12:26:19;;;;;;;2.97;1.20;;;28.20;17.50;;;;;;5076208;28;20442;-91
2022/07/17 12:29:07;;;;;;;3.37;1.43;;;28.30;16.40;;;;;;5094079;28;20468;-90
2022/07/17 12:32:05;;;;;;;4.33;1.40;;;28.30;15.30;;;;;;5084517;28;20791;-89
2022/07/17 12:34:51;;;;;;;2.50;1.27;;;28.20;15.50;;;;;;5081886;28;20470;-89
2022/07/17 12:37:37;;;;;;;3.17;1.37;;;28.10;13.80;;;;;;5086375;28;20469;-90
2022/07/17 12:40:22;;;;;;;2.80;1.00;;;28.10;14.10;;;;;;5089034;28;20426;-90
2022/07/17 12:43:09;;;;;;;7.07;1.50;;;28.20;15.70;;;;;;5080220;28;20435;-90
2022/07/17 12:45:56;;;;;;;2.63;1.10;;;28.40;15.60;;;;;;5081784;28;20424;-90
2022/07/17 12:48:42;;;;;;;4.60;1.43;;;28.50;15.30;;;;;;5090540;28;20437;-90
2022/07/17 12:51:30;;;;;;;3.10;1.43;;;28.60;15.90;;;;;;5090954;28;20434;-89
2022/07/17 12:54:15;;;;;;;3.53;1.70;;;28.60;15.70;;;;;;5089459;28;20429;-91
2022/07/17 12:57:01;;;;;;;3.30;1.40;;;28.80;15.40;;;;;;5085955;28;20422;-89
2022/07/17 12:59:47;;;;;;;2.33;1.30;;;28.90;12.70;;;;;;5081425;28;20589;-90
2022/07/17 13:02:34;;;;;;;3.50;1.23;;;28.70;12.80;;;;;;5086493;28;20820;-90
2022/07/17 13:05:20;;;;;;;4.03;1.70;;;28.90;14.10;;;;;;5086572;28;20426;-91
2022/07/17 13:08:06;;;;;;;7.03;1.40;;;29.00;12.50;;;;;;5090758;28;20457;-89
2022/07/17 13:10:51;;;;;;;4.67;1.80;;;29.10;13.00;;;;;;5092826;28;20472;-90
2022/07/17 13:13:37;;;;;;;2.73;1.50;;;29.10;11.70;;;;;;5088162;28;20441;-90
2022/07/17 13:16:23;;;;;;;4.97;1.20;;;29.30;13.00;;;;;;5079248;28;20477;-91
2022/07/17 13:19:11;;;;;;;3.07;1.60;;;29.50;13.00;;;;;;5100316;22;20624;-74
2022/07/17 13:21:56;;;;;;;3.07;1.47;;;29.70;11.50;;;;;;5086215;28;20461;-74
2022/07/17 13:24:42;;;;;;;4.50;1.93;;;29.80;11.60;;;;;;5087198;28;20441;-74
2022/07/17 13:27:27;;;;;;;6.37;1.40;;;30.00;12.00;;;;;;5092290;28;21021;-74
2022/07/17 13:30:13;;;;;;;2.83;1.10;;;30.10;10.50;;;;;;5086663;28;20610;-74
2022/07/17 13:33:00;;;;;;;7.53;1.53;;;30.10;10.20;;;;;;5080261;28;20965;-74
2022/07/17 13:35:47;;;;;;;4.90;2.00;;;30.10;10.20;;;;;;5086410;28;20500;-73
2022/07/17 13:38:33;;;;;;;3.70;2.13;;;30.20;10.90;;;;;;5077048;28;20465;-74
2022/07/17 13:41:18;;;;;;;3.10;1.50;;;30.20;11.70;;;;;;5088714;28;20414;-74
2022/07/17 13:44:06;;;;;;;2.80;1.33;;;30.30;11.70;;;;;;5084067;28;20446;-74
2022/07/17 13:46:51;;;;;;;4.40;1.60;;;30.50;10.80;;;;;;5085703;28;20497;-74
2022/07/17 13:49:37;;;;;;;4.27;1.47;;;30.50;10.50;;;;;;5080375;28;20438;-74
2022/07/17 13:52:24;;;;;;;5.00;1.47;;;30.30;10.80;;;;;;5086560;28;20465;-75
2022/07/17 13:55:10;;;;;;;2.50;1.13;;;30.30;11.20;;;;;;5081963;28;20438;-74
2022/07/17 13:57:55;;;;;;;5.43;1.43;;;30.10;11.00;;;;;;5082828;28;20469;-74
2022/07/17 14:00:41;;;;;;;6.60;1.93;;;30.10;11.30;;;;;;5083616;28;20475;-74
2022/07/17 14:03:27;;;;;;;3.70;1.70;;;30.20;13.10;;;;;;5078285;28;21054;-74
2022/07/17 14:06:13;;;;;;;4.67;1.60;;;30.20;11.30;;;;;;5088690;28;20871;-73
2022/07/17 14:09:00;;;;;;;6.43;2.00;;;30.20;11.50;;;;;;5080436;28;20813;-74
2022/07/17 14:11:46;;;;;;;3.87;1.70;;;30.20;11.90;;;;;;5082069;28;20427;-74
2022/07/17 14:14:32;;;;;;;8.90;1.67;;;30.20;13.40;;;;;;5083319;28;20447;-74
2022/07/17 14:17:18;;;;;;;3.60;1.37;;;30.20;13.70;;;;;;5082070;28;20430;-75
2022/07/17 14:20:05;;;;;;;4.30;1.70;;;30.20;12.60;;;;;;5082911;28;20528;-75
2022/07/17 14:22:51;;;;;;;5.03;1.43;;;30.20;11.90;;;;;;5087414;28;20880;-75
2022/07/17 14:25:37;;;;;;;3.77;1.50;;;30.20;12.60;;;;;;5080651;28;20438;-74